Time;durP1;ratioP1;P1;durP2;ratioP2;P2;SDS_P1;SDS_P2;PMS_P1;PMS_P2;Temp;Humidity;BMP_temperature;BMP_pressure;BME280_temperature;BME280_humidity;BME280_pressure;Samples;Min_cycle;Max_cycle;Signal;HPM_P1;HPM_P2
2022/12/12 00:01:59;;;;;;;;;;;;;;;;;;5113783;28;1668;-39
2022/12/12 00:04:27;;;;;;;;;;;;;;;;;;5113913;28;1901;-38
2022/12/12 00:06:54;;;;;;;;;;;;;;;;;;5113638;28;1746;-39
2022/12/12 00:09:21;;;;;;;;;;;;;;;;;;5113590;28;1921;-39
2022/12/12 00:11:48;;;;;;;;;;;;;;;;;;5113603;28;1569;-39
2022/12/12 00:14:15;;;;;;;;;;;;;;;;;;5113398;28;1974;-39
2022/12/12 00:16:42;;;;;;;;;;;;;;;;;;5113376;28;1605;-39
2022/12/12 00:19:09;;;;;;;;;;;;;;;;;;5113447;28;1237;-39
2022/12/12 00:21:39;;;;;;;;;;;;;;;;;;5095110;28;1792;-38
2022/12/12 00:24:06;;;;;;;;;;;;;;;;;;5092771;28;1915;-39
2022/12/12 00:26:33;;;;;;;;;;;;;;;;;;5092997;28;1504;-39
2022/12/12 00:29:01;;;;;;;;;;;;;;;;;;5092742;28;1618;-39
2022/12/12 00:31:28;;;;;;;;;;;;;;;;;;5093134;28;1835;-39
2022/12/12 00:33:55;;;;;;;;;;;;;;;;;;5093062;28;1684;-39
2022/12/12 00:36:24;;;;;;;;;;;;;;;;;;5091426;28;2052;-39
2022/12/12 00:38:51;;;;;;;;;;;;;;;;;;5074710;28;1398;-39
2022/12/12 00:41:19;;;;;;;;;;;;;;;;;;5092597;28;1990;-39
2022/12/12 00:43:46;;;;;;;;;;;;;;;;;;5092486;28;1906;-38
2022/12/12 00:46:14;;;;;;;;;;;;;;;;;;5092501;28;1964;-38
2022/12/12 00:48:41;;;;;;;;;;;;;;;;;;5092358;28;1707;-39
2022/12/12 00:51:12;;;;;;;;;;;;;;;;;;5092460;28;1029;-38
2022/12/12 00:53:39;;;;;;;;;;;;;;;;;;5092423;28;1805;-39
2022/12/12 00:56:06;;;;;;;;;;;;;;;;;;5092311;28;2217;-40
2022/12/12 00:58:34;;;;;;;;;;;;;;;;;;5074429;28;1268;-39
2022/12/12 01:01:05;;;;;;;;;;;;;;;;;;5092311;28;1128;-38
2022/12/12 01:03:32;;;;;;;;;;;;;;;;;;5092307;28;1256;-39
2022/12/12 01:06:00;;;;;;;;;;;;;;;;;;5092012;28;1897;-39
2022/12/12 01:08:27;;;;;;;;;;;;;;;;;;5092406;28;2205;-39
2022/12/12 01:10:55;;;;;;;;;;;;;;;;;;5091914;28;1751;-39
2022/12/12 01:13:22;;;;;;;;;;;;;;;;;;5092192;28;1980;-41
2022/12/12 01:15:50;;;;;;;;;;;;;;;;;;5092078;28;1538;-38
2022/12/12 01:18:17;;;;;;;;;;;;;;;;;;5091579;28;1600;-40
2022/12/12 01:20:44;;;;;;;;;;;;;;;;;;5092027;28;1736;-40
2022/12/12 01:23:11;;;;;;;;;;;;;;;;;;5091915;28;1672;-39
2022/12/12 01:25:39;;;;;;;;;;;;;;;;;;5091930;28;2489;-39
2022/12/12 01:28:06;;;;;;;;;;;;;;;;;;5091572;28;1455;-39
2022/12/12 01:30:33;;;;;;;;;;;;;;;;;;5091538;28;1897;-39
2022/12/12 01:33:00;;;;;;;;;;;;;;;;;;5103586;28;1597;-39
2022/12/12 01:35:27;;;;;;;;;;;;;;;;;;5112061;28;1861;-39
2022/12/12 01:37:55;;;;;;;;;;;;;;;;;;5111985;28;1716;-40
2022/12/12 01:40:24;;;;;;;;;;;;;;;;;;5106676;28;1058;-40
2022/12/12 01:42:51;;;;;;;;;;;;;;;;;;5091262;28;1417;-39
2022/12/12 01:45:38;;;;;;;;;;;;;;;;;;5091663;28;2096;-38
2022/12/12 01:48:05;;;;;;;;;;;;;;;;;;5090932;28;2205;-39
2022/12/12 01:50:32;;;;;;;;;;;;;;;;;;5091733;28;1427;-39
2022/12/12 01:52:59;;;;;;;;;;;;;;;;;;5091625;28;1632;-38
2022/12/12 01:55:26;;;;;;;;;;;;;;;;;;5091362;28;2058;-40
2022/12/12 01:57:54;;;;;;;;;;;;;;;;;;5073655;28;1343;-39
2022/12/12 02:00:21;;;;;;;;;;;;;;;;;;5091507;28;2195;-38
2022/12/12 02:02:52;;;;;;;;;;;;;;;;;;5091295;28;2081;-39
2022/12/12 02:05:22;;;;;;;;;;;;;;;;;;5090935;28;1900;-40
2022/12/12 02:07:49;;;;;;;;;;;;;;;;;;5091205;28;1887;-40
2022/12/12 02:10:17;;;;;;;;;;;;;;;;;;5091169;28;2253;-39
2022/12/12 02:12:45;;;;;;;;;;;;;;;;;;5091091;28;2135;-39
2022/12/12 02:15:12;;;;;;;;;;;;;;;;;;5091214;28;1684;-39
2022/12/12 02:18:02;;;;;;;;;;;;;;;;;;5091277;28;1368;-39
2022/12/12 02:20:35;;;;;;;;;;;;;;;;;;5090746;28;1946;-40
2022/12/12 02:23:13;;;;;;;;;;;;;;;;;;5091052;28;1810;-39
2022/12/12 02:25:40;;;;;;;;;;;;;;;;;;5091033;28;1984;-39
2022/12/12 02:28:26;;;;;;;;;;;;;;;;;;5091037;28;1790;-39
2022/12/12 02:31:12;;;;;;;;;;;;;;;;;;5091174;28;2137;-40
2022/12/12 02:33:57;;;;;;;;;;;;;;;;;;5090878;28;1265;-39
2022/12/12 02:36:44;;;;;;;;;;;;;;;;;;5091148;28;1862;-38
2022/12/12 02:39:27;;;;;;;;;;;;;;;;;;5074678;28;2133;-39
2022/12/12 02:42:17;;;;;;;;;;;;;;;;;;5090942;28;1484;-39
2022/12/12 02:44:48;;;;;;;;;;;;;;;;;;5072748;28;1967;-39
2022/12/12 02:47:18;;;;;;;;;;;;;;;;;;5090917;28;1387;-39
2022/12/12 02:49:51;;;;;;;;;;;;;;;;;;5090470;28;1467;-39
2022/12/12 02:52:19;;;;;;;;;;;;;;;;;;5091061;28;1537;-38
2022/12/12 02:54:47;;;;;;;;;;;;;;;;;;5090553;28;2071;-38
2022/12/12 02:57:16;;;;;;;;;;;;;;;;;;5090965;28;1673;-39
2022/12/12 02:59:46;;;;;;;;;;;;;;;;;;5091812;28;1289;-39
2022/12/12 03:02:29;;;;;;;;;;;;;;;;;;5094361;28;1883;-38
2022/12/12 03:08:02;;;;;;;;;;;;;;;;;;5094117;28;1227;-38
2022/12/12 03:10:29;;;;;;;;;;;;;;;;;;5094377;28;1627;-39
2022/12/12 03:13:00;;;;;;;;;;;;;;;;;;5094458;28;1795;-39
2022/12/12 03:15:34;;;;;;;;;;;;;;;;;;5110607;28;2287;-39
2022/12/12 03:18:08;;;;;;;;;;;;;;;;;;5114421;28;1953;-38
2022/12/12 03:20:42;;;;;;;;;;;;;;;;;;5105206;28;1560;-40
2022/12/12 03:23:17;;;;;;;;;;;;;;;;;;5094355;28;1868;-39
2022/12/12 03:25:50;;;;;;;;;;;;;;;;;;5093933;28;2005;-40
2022/12/12 03:28:21;;;;;;;;;;;;;;;;;;5093961;28;1583;-38
2022/12/12 03:30:51;;;;;;;;;;;;;;;;;;5094060;28;1601;-40
2022/12/12 03:33:33;;;;;;;;;;;;;;;;;;5093752;28;2040;-39
2022/12/12 03:36:09;;;;;;;;;;;;;;;;;;5094062;28;1476;-38
2022/12/12 03:38:38;;;;;;;;;;;;;;;;;;5093820;28;1452;-38
2022/12/12 03:41:09;;;;;;;;;;;;;;;;;;5075848;28;1673;-38
2022/12/12 03:43:43;;;;;;;;;;;;;;;;;;5075647;28;1903;-38
2022/12/12 03:46:19;;;;;;;;;;;;;;;;;;5093929;28;1906;-40
2022/12/12 03:49:07;;;;;;;;;;;;;;;;;;5075152;28;2446;-38
2022/12/12 03:51:38;;;;;;;;;;;;;;;;;;5093717;28;1740;-39
2022/12/12 03:54:10;;;;;;;;;;;;;;;;;;5093494;28;1995;-38
2022/12/12 03:56:37;;;;;;;;;;;;;;;;;;5093620;28;1553;-39
2022/12/12 03:59:07;;;;;;;;;;;;;;;;;;5093554;28;2002;-40
2022/12/12 04:01:50;;;;;;;;;;;;;;;;;;5093533;28;1817;-39
2022/12/12 04:04:25;;;;;;;;;;;;;;;;;;5093440;28;1779;-39
2022/12/12 04:06:59;;;;;;;;;;;;;;;;;;5093160;28;1915;-40
2022/12/12 04:15:40;;;;;;;;;;;;;;;;;;5092905;28;1811;-39
2022/12/12 04:18:25;;;;;;;;;;;;;;;;;;5093279;28;1540;-39
2022/12/12 04:24:02;;;;;;;;;;;;;;;;;;5092827;28;1319;-40
2022/12/12 04:26:38;;;;;;;;;;;;;;;;;;5092409;28;2038;-38
2022/12/12 04:29:05;;;;;;;;;;;;;;;;;;5092899;28;1826;-38
2022/12/12 04:31:34;;;;;;;;;;;;;;;;;;5074342;28;1596;-39
2022/12/12 04:34:04;;;;;;;;;;;;;;;;;;5092468;28;2077;-39
2022/12/12 04:36:33;;;;;;;;;;;;;;;;;;5092784;28;1913;-39
2022/12/12 04:39:01;;;;;;;;;;;;;;;;;;5092786;28;1583;-39
2022/12/12 04:41:30;;;;;;;;;;;;;;;;;;5092445;28;1510;-39
2022/12/12 04:43:58;;;;;;;;;;;;;;;;;;5092646;28;1736;-39
2022/12/12 04:46:27;;;;;;;;;;;;;;;;;;5082548;28;9663;-39
2022/12/12 04:48:59;;;;;;;;;;;;;;;;;;5074776;28;6067;-38
2022/12/12 04:51:30;;;;;;;;;;;;;;;;;;5092352;28;1085;-40
2022/12/12 04:54:12;;;;;;;;;;;;;;;;;;5092177;28;1587;-39
2022/12/12 04:56:42;;;;;;;;;;;;;;;;;;5092205;28;1813;-39
2022/12/12 04:59:09;;;;;;;;;;;;;;;;;;5092281;28;1442;-38
2022/12/12 05:01:39;;;;;;;;;;;;;;;;;;5092309;28;2204;-39
2022/12/12 05:04:08;;;;;;;;;;;;;;;;;;5092029;28;1577;-39
2022/12/12 05:06:42;;;;;;;;;;;;;;;;;;5092039;28;1918;-40
2022/12/12 05:09:13;;;;;;;;;;;;;;;;;;5092132;28;1120;-40
2022/12/12 05:11:41;;;;;;;;;;;;;;;;;;5092315;28;1322;-40
2022/12/12 05:14:08;;;;;;;;;;;;;;;;;;5092198;28;1561;-39
2022/12/12 05:16:41;;;;;;;;;;;;;;;;;;5074071;28;1958;-39
2022/12/12 05:19:08;;;;;;;;;;;;;;;;;;5091983;28;1824;-39
2022/12/12 05:21:35;;;;;;;;;;;;;;;;;;5091540;28;1851;-38
2022/12/12 05:24:03;;;;;;;;;;;;;;;;;;5111617;28;1679;-39
2022/12/12 05:26:31;;;;;;;;;;;;;;;;;;5093763;28;2215;-39
2022/12/12 05:29:01;;;;;;;;;;;;;;;;;;5111904;28;1676;-39
2022/12/12 05:31:33;;;;;;;;;;;;;;;;;;5112037;28;1616;-40
2022/12/12 05:34:00;;;;;;;;;;;;;;;;;;5111979;28;1089;-39
2022/12/12 05:36:27;;;;;;;;;;;;;;;;;;5111980;28;1316;-39
2022/12/12 05:38:55;;;;;;;;;;;;;;;;;;5112044;28;1377;-39
2022/12/12 05:41:22;;;;;;;;;;;;;;;;;;5104017;28;1842;-39
2022/12/12 05:43:49;;;;;;;;;;;;;;;;;;5091580;28;1512;-39
2022/12/12 05:46:16;;;;;;;;;;;;;;;;;;5091828;28;2233;-38
2022/12/12 05:48:49;;;;;;;;;;;;;;;;;;5091311;28;1555;-39
2022/12/12 05:51:17;;;;;;;;;;;;;;;;;;5091959;28;1564;-38
2022/12/12 05:53:44;;;;;;;;;;;;;;;;;;5091390;28;2000;-39
2022/12/12 05:56:12;;;;;;;;;;;;;;;;;;5091674;28;1716;-39
2022/12/12 05:58:40;;;;;;;;;;;;;;;;;;5091304;28;1855;-39
2022/12/12 06:01:07;;;;;;;;;;;;;;;;;;5091346;28;1261;-39
2022/12/12 06:03:35;;;;;;;;;;;;;;;;;;5090934;28;1284;-39
2022/12/12 06:06:02;;;;;;;;;;;;;;;;;;5091010;28;1920;-40
2022/12/12 06:08:29;;;;;;;;;;;;;;;;;;5073092;28;2307;-39
2022/12/12 06:10:56;;;;;;;;;;;;;;;;;;5091225;28;1828;-39
2022/12/12 06:13:23;;;;;;;;;;;;;;;;;;5091198;28;1726;-39
2022/12/12 06:15:51;;;;;;;;;;;;;;;;;;5091116;28;1629;-39
2022/12/12 06:18:18;;;;;;;;;;;;;;;;;;5091279;28;1996;-38
2022/12/12 06:20:44;;;;;;;;;;;;;;;;;;5101525;28;1694;-40
2022/12/12 06:23:12;;;;;;;;;;;;;;;;;;5111359;28;1561;-40
2022/12/12 06:25:39;;;;;;;;;;;;;;;;;;5093351;28;2180;-38
2022/12/12 06:28:06;;;;;;;;;;;;;;;;;;5111520;28;1621;-38
2022/12/12 06:30:33;;;;;;;;;;;;;;;;;;5110885;28;1505;-39
2022/12/12 06:33:00;;;;;;;;;;;;;;;;;;5111572;28;1469;-38
2022/12/12 06:35:27;;;;;;;;;;;;;;;;;;5097179;28;1606;-39
2022/12/12 06:37:54;;;;;;;;;;;;;;;;;;5115712;28;2045;-40
2022/12/12 06:40:21;;;;;;;;;;;;;;;;;;5115653;28;1388;-39
2022/12/12 06:42:48;;;;;;;;;;;;;;;;;;5115471;28;1289;-39
2022/12/12 06:45:18;;;;;;;;;;;;;;;;;;5115316;28;2031;-39
2022/12/12 06:47:45;;;;;;;;;;;;;;;;;;5115342;28;1522;-39
2022/12/12 06:50:12;;;;;;;;;;;;;;;;;;5115347;28;1758;-38
2022/12/12 06:52:40;;;;;;;;;;;;;;;;;;5115350;28;1739;-39
2022/12/12 06:55:07;;;;;;;;;;;;;;;;;;5115142;28;1634;-39
2022/12/12 06:57:35;;;;;;;;;;;;;;;;;;5115163;28;1745;-39
2022/12/12 07:00:02;;;;;;;;;;;;;;;;;;5096673;28;2497;-39
2022/12/12 07:02:30;;;;;;;;;;;;;;;;;;5115042;28;1670;-40
2022/12/12 07:04:57;;;;;;;;;;;;;;;;;;5114842;28;1957;-39
2022/12/12 07:07:24;;;;;;;;;;;;;;;;;;5114699;28;1919;-40
2022/12/12 07:09:51;;;;;;;;;;;;;;;;;;5114834;28;1786;-42
2022/12/12 07:12:18;;;;;;;;;;;;;;;;;;5114764;28;2032;-38
2022/12/12 07:14:46;;;;;;;;;;;;;;;;;;5114727;28;1715;-38
2022/12/12 07:17:12;;;;;;;;;;;;;;;;;;5114742;28;1688;-40
2022/12/12 07:19:40;;;;;;;;;;;;;;;;;;5112716;28;2053;-39
2022/12/12 07:22:08;;;;;;;;;;;;;;;;;;5075818;28;1528;-40
2022/12/12 07:24:36;;;;;;;;;;;;;;;;;;5094256;28;1988;-39
2022/12/12 07:27:04;;;;;;;;;;;;;;;;;;5093800;28;1906;-40
2022/12/12 07:29:33;;;;;;;;;;;;;;;;;;5094006;28;1845;-40
2022/12/12 07:32:00;;;;;;;;;;;;;;;;;;5094022;28;1939;-40
2022/12/12 07:34:29;;;;;;;;;;;;;;;;;;5094421;28;1753;-40
2022/12/12 07:36:57;;;;;;;;;;;;;;;;;;5094018;28;1943;-39
2022/12/12 07:39:32;;;;;;;;;;;;;;;;;;5076834;28;2307;-41
2022/12/12 07:41:59;;;;;;;;;;;;;;;;;;5093647;28;1971;-39
2022/12/12 07:44:26;;;;;;;;;;;;;;;;;;5093926;28;1872;-39
2022/12/12 07:46:55;;;;;;;;;;;;;;;;;;5092982;28;1986;-37
2022/12/12 07:49:23;;;;;;;;;;;;;;;;;;5093843;28;1418;-40
2022/12/12 07:51:50;;;;;;;;;;;;;;;;;;5093731;28;1700;-40
2022/12/12 07:54:20;;;;;;;;;;;;;;;;;;5093660;28;1950;-39
2022/12/12 07:56:47;;;;;;;;;;;;;;;;;;5093680;28;1727;-40
2022/12/12 07:59:14;;;;;;;;;;;;;;;;;;5093318;28;1585;-41
2022/12/12 08:01:41;;;;;;;;;;;;;;;;;;5093413;28;1424;-39
2022/12/12 08:04:08;;;;;;;;;;;;;;;;;;5093402;28;1969;-39
2022/12/12 08:06:36;;;;;;;;;;;;;;;;;;5093321;28;1977;-39
2022/12/12 08:09:03;;;;;;;;;;;;;;;;;;5075287;28;1862;-39
2022/12/12 08:11:30;;;;;;;;;;;;;;;;;;5093308;28;1431;-40
2022/12/12 08:13:57;;;;;;;;;;;;;;;;;;5093275;28;1423;-39
2022/12/12 08:16:26;;;;;;;;;;;;;;;;;;5093102;28;1175;-40
2022/12/12 08:18:54;;;;;;;;;;;;;;;;;;5074918;28;1787;-40
2022/12/12 08:21:21;;;;;;;;;;;;;;;;;;5108996;28;2209;-40
2022/12/12 08:23:54;;;;;;;;;;;;;;;;;;5113530;28;1979;-39
2022/12/12 08:26:21;;;;;;;;;;;;;;;;;;5113367;28;1902;-39
2022/12/12 08:28:49;;;;;;;;;;;;;;;;;;5113545;28;1526;-39
2022/12/12 08:31:17;;;;;;;;;;;;;;;;;;5113181;28;1629;-39
2022/12/12 08:33:44;;;;;;;;;;;;;;;;;;5113095;28;2287;-40
2022/12/12 08:36:15;;;;;;;;;;;;;;;;;;5113235;28;1684;-40
2022/12/12 08:38:43;;;;;;;;;;;;;;;;;;5112899;28;1541;-39
2022/12/12 08:41:11;;;;;;;;;;;;;;;;;;5113302;28;2139;-39
2022/12/12 08:43:38;;;;;;;;;;;;;;;;;;5113094;28;1675;-43
2022/12/12 08:46:07;;;;;;;;;;;;;;;;;;5112898;28;2234;-39
2022/12/12 08:48:39;;;;;;;;;;;;;;;;;;5113028;28;2243;-39
2022/12/12 08:51:06;;;;;;;;;;;;;;;;;;5113065;28;1908;-40
2022/12/12 08:53:33;;;;;;;;;;;;;;;;;;5112796;28;1264;-40
2022/12/12 08:56:00;;;;;;;;;;;;;;;;;;5113136;28;1668;-39
2022/12/12 08:58:28;;;;;;;;;;;;;;;;;;5111722;28;2186;-39
2022/12/12 09:00:55;;;;;;;;;;;;;;;;;;5112834;28;1214;-40
2022/12/12 09:03:23;;;;;;;;;;;;;;;;;;5094138;28;1546;-40
2022/12/12 09:05:55;;;;;;;;;;;;;;;;;;5112349;28;1973;-40
2022/12/12 09:08:22;;;;;;;;;;;;;;;;;;5112921;28;1675;-40
2022/12/12 09:10:49;;;;;;;;;;;;;;;;;;5112571;28;1972;-39
2022/12/12 09:13:16;;;;;;;;;;;;;;;;;;5112507;28;1800;-40
2022/12/12 09:15:44;;;;;;;;;;;;;;;;;;5112439;28;2098;-39
2022/12/12 09:18:11;;;;;;;;;;;;;;;;;;5112356;28;2182;-39
2022/12/12 09:20:38;;;;;;;;;;;;;;;;;;5102366;28;2135;-41
2022/12/12 09:23:06;;;;;;;;;;;;;;;;;;5073811;28;1759;-40
2022/12/12 09:25:34;;;;;;;;;;;;;;;;;;5091421;28;1786;-40
2022/12/12 09:28:05;;;;;;;;;;;;;;;;;;5091781;28;1975;-40
2022/12/12 09:30:33;;;;;;;;;;;;;;;;;;5091893;28;1403;-39
2022/12/12 09:33:00;;;;;;;;;;;;;;;;;;5092160;28;1303;-40
2022/12/12 09:35:29;;;;;;;;;;;;;;;;;;5091892;28;1779;-40
2022/12/12 09:37:57;;;;;;;;;;;;;;;;;;5091784;28;2225;-39
2022/12/12 09:40:46;;;;;;;;;;;;;;;;;;5091570;28;1666;-40
2022/12/12 09:43:16;;;;;;;;;;;;;;;;;;5091624;28;1801;-40
2022/12/12 09:45:43;;;;;;;;;;;;;;;;;;5091479;28;1843;-39
2022/12/12 09:48:11;;;;;;;;;;;;;;;;;;5091572;28;1966;-40
2022/12/12 09:50:40;;;;;;;;;;;;;;;;;;5091314;28;1686;-40
2022/12/12 09:53:11;;;;;;;;;;;;;;;;;;5091568;28;2255;-41
2022/12/12 09:55:45;;;;;;;;;;;;;;;;;;5091474;28;1829;-39
2022/12/12 09:58:13;;;;;;;;;;;;;;;;;;5091444;28;1962;-39
2022/12/12 10:00:41;;;;;;;;;;;;;;;;;;5091384;28;1424;-42
2022/12/12 10:03:41;;;;;;;;;;;;;;;;;;5090947;28;1863;-40
2022/12/12 10:06:10;;;;;;;;;;;;;;;;;;5057478;28;2079;-40
2022/12/12 10:09:08;;;;;;;;;;;;;;;;;;5091226;28;1435;-39
2022/12/12 10:11:49;;;;;;;;;;;;;;;;;;5091133;28;1916;-39
2022/12/12 10:14:34;;;;;;;;;;;;;;;;;;5073290;28;2478;-39
2022/12/12 10:17:05;;;;;;;;;;;;;;;;;;5091543;28;1539;-40
2022/12/12 10:19:34;;;;;;;;;;;;;;;;;;5091220;28;1774;-39
2022/12/12 10:22:05;;;;;;;;;;;;;;;;;;5091302;28;1927;-39
2022/12/12 10:24:38;;;;;;;;;;;;;;;;;;5091471;28;1989;-39
2022/12/12 10:27:09;;;;;;;;;;;;;;;;;;5091186;28;1982;-40
2022/12/12 10:29:45;;;;;;;;;;;;;;;;;;5091350;28;1649;-40
2022/12/12 10:32:20;;;;;;;;;;;;;;;;;;5090932;28;1705;-40
2022/12/12 10:34:47;;;;;;;;;;;;;;;;;;5091135;28;1628;-40
2022/12/12 10:37:20;;;;;;;;;;;;;;;;;;5091149;28;2055;-41
2022/12/12 10:39:50;;;;;;;;;;;;;;;;;;5091040;28;1798;-39
2022/12/12 10:42:17;;;;;;;;;;;;;;;;;;5090844;28;1765;-42
2022/12/12 10:44:44;;;;;;;;;;;;;;;;;;5090943;28;951;-40
2022/12/12 10:47:13;;;;;;;;;;;;;;;;;;5091029;28;1908;-39
2022/12/12 10:49:41;;;;;;;;;;;;;;;;;;5091035;28;1824;-39
2022/12/12 10:52:18;;;;;;;;;;;;;;;;;;5091268;28;1976;-40
2022/12/12 10:54:59;;;;;;;;;;;;;;;;;;5072481;28;1705;-40
2022/12/12 10:57:27;;;;;;;;;;;;;;;;;;5090815;28;1248;-39
2022/12/12 10:59:56;;;;;;;;;;;;;;;;;;5090885;28;2082;-39
2022/12/12 11:02:39;;;;;;;;;;;;;;;;;;5090794;28;2205;-40
2022/12/12 11:05:09;;;;;;;;;;;;;;;;;;5090736;28;1946;-40
2022/12/12 11:07:38;;;;;;;;;;;;;;;;;;5090626;28;1919;-39
2022/12/12 11:10:20;;;;;;;;;;;;;;;;;;5091048;28;2199;-40
2022/12/12 11:12:59;;;;;;;;;;;;;;;;;;5090708;28;1984;-40
2022/12/12 11:15:30;;;;;;;;;;;;;;;;;;5090763;28;1799;-39
2022/12/12 11:17:58;;;;;;;;;;;;;;;;;;5090506;28;1662;-39
2022/12/12 11:20:31;;;;;;;;;;;;;;;;;;5091244;28;1259;-40
2022/12/12 11:22:58;;;;;;;;;;;;;;;;;;5094348;28;1851;-39
2022/12/12 11:25:27;;;;;;;;;;;;;;;;;;5094179;28;1887;-41
2022/12/12 11:27:55;;;;;;;;;;;;;;;;;;5094148;28;2164;-41
2022/12/12 11:30:33;;;;;;;;;;;;;;;;;;5094061;28;1703;-40
2022/12/12 11:33:01;;;;;;;;;;;;;;;;;;5094037;28;2136;-39
2022/12/12 11:35:36;;;;;;;;;;;;;;;;;;5094169;28;2220;-39
2022/12/12 11:38:17;;;;;;;;;;;;;;;;;;5094176;28;1799;-41
2022/12/12 11:40:44;;;;;;;;;;;;;;;;;;5093633;28;1839;-39
2022/12/12 11:43:18;;;;;;;;;;;;;;;;;;5093844;28;1762;-40
2022/12/12 11:46:03;;;;;;;;;;;;;;;;;;5093946;28;1456;-39
2022/12/12 11:48:31;;;;;;;;;;;;;;;;;;5093754;28;2211;-40
2022/12/12 11:50:58;;;;;;;;;;;;;;;;;;5093620;28;2067;-39
2022/12/12 11:53:25;;;;;;;;;;;;;;;;;;5109884;28;1717;-40
2022/12/12 11:55:55;;;;;;;;;;;;;;;;;;5113827;28;1705;-40
2022/12/12 11:58:26;;;;;;;;;;;;;;;;;;5114162;28;2176;-40
2022/12/12 12:01:08;;;;;;;;;;;;;;;;;;5114075;28;1801;-40
2022/12/12 12:03:54;;;;;;;;;;;;;;;;;;5113691;28;1347;-42
2022/12/12 12:06:21;;;;;;;;;;;;;;;;;;5113606;28;1789;-39
2022/12/12 12:09:07;;;;;;;;;;;;;;;;;;5095745;28;1914;-40
2022/12/12 12:11:34;;;;;;;;;;;;;;;;;;5113691;28;1737;-40
2022/12/12 12:14:04;;;;;;;;;;;;;;;;;;5113762;28;1792;-39
2022/12/12 12:16:34;;;;;;;;;;;;;;;;;;5113519;28;2049;-40
2022/12/12 12:19:07;;;;;;;;;;;;;;;;;;5113811;28;2108;-40
2022/12/12 12:21:42;;;;;;;;;;;;;;;;;;5095715;28;2019;-38
2022/12/12 12:24:27;;;;;;;;;;;;;;;;;;5093422;28;1721;-39
2022/12/12 12:27:00;;;;;;;;;;;;;;;;;;5093009;28;1906;-40
2022/12/12 12:29:35;;;;;;;;;;;;;;;;;;5094721;28;1377;-40
2022/12/12 12:32:26;;;;;;;;;;;;;;;;;;5092910;28;1685;-39
2022/12/12 12:35:05;;;;;;;;;;;;;;;;;;5046466;28;1917;-40
2022/12/12 12:37:35;;;;;;;;;;;;;;;;;;5092964;28;2053;-40
2022/12/12 12:40:12;;;;;;;;;;;;;;;;;;5092918;28;1838;-39
2022/12/12 12:42:53;;;;;;;;;;;;;;;;;;5092554;28;1679;-39
2022/12/12 12:45:33;;;;;;;;;;;;;;;;;;5092921;28;2004;-39
2022/12/12 12:48:03;;;;;;;;;;;;;;;;;;5092714;28;1979;-41
2022/12/12 12:50:35;;;;;;;;;;;;;;;;;;5092525;28;1815;-41
2022/12/12 12:53:11;;;;;;;;;;;;;;;;;;5092669;28;1601;-40
2022/12/12 12:55:42;;;;;;;;;;;;;;;;;;5092414;28;2065;-41
2022/12/12 12:58:17;;;;;;;;;;;;;;;;;;5092687;28;1486;-41
2022/12/12 13:00:47;;;;;;;;;;;;;;;;;;5092449;28;1956;-39
2022/12/12 13:03:20;;;;;;;;;;;;;;;;;;5105248;28;1827;-40
2022/12/12 13:05:50;;;;;;;;;;;;;;;;;;5112444;28;1762;-39
2022/12/12 13:08:27;;;;;;;;;;;;;;;;;;5112321;28;1971;-40
2022/12/12 13:10:56;;;;;;;;;;;;;;;;;;5112345;28;1566;-40
2022/12/12 13:13:26;;;;;;;;;;;;;;;;;;5112623;28;2133;-40
2022/12/12 13:16:01;;;;;;;;;;;;;;;;;;5112471;28;1896;-40
2022/12/12 13:18:30;;;;;;;;;;;;;;;;;;5094235;28;1614;-39
2022/12/12 13:21:15;;;;;;;;;;;;;;;;;;5097868;28;1402;-39
2022/12/12 13:24:00;;;;;;;;;;;;;;;;;;5091969;28;1672;-42
2022/12/12 13:26:43;;;;;;;;;;;;;;;;;;5092307;28;2152;-38
2022/12/12 13:29:11;;;;;;;;;;;;;;;;;;5097709;28;1926;-41
2022/12/12 13:31:45;;;;;;;;;;;;;;;;;;5100092;28;1324;-40
2022/12/12 13:34:14;;;;;;;;;;;;;;;;;;5091672;28;2318;-40
2022/12/12 13:36:46;;;;;;;;;;;;;;;;;;5108833;28;2071;-40
2022/12/12 13:39:30;;;;;;;;;;;;;;;;;;5112106;28;1826;-39
2022/12/12 13:42:00;;;;;;;;;;;;;;;;;;5111747;28;2067;-39
2022/12/12 13:44:32;;;;;;;;;;;;;;;;;;5111238;28;1248;-40
2022/12/12 13:47:02;;;;;;;;;;;;;;;;;;5111520;28;2139;-39
2022/12/12 13:49:34;;;;;;;;;;;;;;;;;;5089616;28;1479;-41
2022/12/12 13:52:22;;;;;;;;;;;;;;;;;;5091364;28;1818;-40
2022/12/12 13:54:52;;;;;;;;;;;;;;;;;;5091425;28;1430;-40
2022/12/12 13:57:29;;;;;;;;;;;;;;;;;;5091446;28;1813;-40
2022/12/12 13:59:56;;;;;;;;;;;;;;;;;;5091376;28;1594;-40
2022/12/12 14:02:40;;;;;;;;;;;;;;;;;;5091189;28;1888;-41
2022/12/12 14:05:10;;;;;;;;;;;;;;;;;;5091008;28;1865;-40
2022/12/12 14:07:38;;;;;;;;;;;;;;;;;;5091240;28;1985;-40
2022/12/12 14:10:25;;;;;;;;;;;;;;;;;;5091362;28;2034;-41
2022/12/12 14:12:52;;;;;;;;;;;;;;;;;;5091267;28;1765;-40
2022/12/12 14:15:30;;;;;;;;;;;;;;;;;;5091358;28;2033;-42
2022/12/12 14:18:00;;;;;;;;;;;;;;;;;;5091467;28;1087;-40
2022/12/12 14:20:30;;;;;;;;;;;;;;;;;;5099512;28;1775;-40
2022/12/12 14:23:06;;;;;;;;;;;;;;;;;;5111523;28;1559;-39
2022/12/12 14:25:37;;;;;;;;;;;;;;;;;;5111258;28;1553;-41
2022/12/12 14:28:14;;;;;;;;;;;;;;;;;;5111423;28;1909;-39
2022/12/12 14:30:53;;;;;;;;;;;;;;;;;;5110917;28;1912;-40
2022/12/12 14:33:38;;;;;;;;;;;;;;;;;;5111535;28;1930;-40
2022/12/12 14:36:25;;;;;;;;;;;;;;;;;;5111167;28;2108;-40
2022/12/12 14:39:02;;;;;;;;;;;;;;;;;;5111180;28;1837;-40
2022/12/12 14:41:31;;;;;;;;;;;;;;;;;;5111432;28;2223;-38
2022/12/12 14:43:59;;;;;;;;;;;;;;;;;;5111022;28;1952;-39
2022/12/12 14:46:47;;;;;;;;;;;;;;;;;;5111202;28;1369;-40
2022/12/12 14:49:15;;;;;;;;;;;;;;;;;;5110844;28;2096;-40
2022/12/12 14:51:48;;;;;;;;;;;;;;;;;;5111155;28;1609;-40
2022/12/12 14:54:16;;;;;;;;;;;;;;;;;;5111230;28;1411;-41
2022/12/12 14:56:46;;;;;;;;;;;;;;;;;;5113759;28;1941;-40
2022/12/12 14:59:22;;;;;;;;;;;;;;;;;;5115196;28;1541;-39
2022/12/12 15:01:54;;;;;;;;;;;;;;;;;;5115333;28;1899;-40
2022/12/12 15:04:24;;;;;;;;;;;;;;;;;;5115224;28;1353;-40
2022/12/12 15:06:55;;;;;;;;;;;;;;;;;;5115066;28;1645;-40
2022/12/12 15:09:24;;;;;;;;;;;;;;;;;;5114790;28;2057;-39
2022/12/12 15:11:53;;;;;;;;;;;;;;;;;;5114865;28;1833;-39
2022/12/12 15:14:25;;;;;;;;;;;;;;;;;;5115109;28;1710;-40
2022/12/12 15:16:55;;;;;;;;;;;;;;;;;;5114801;28;1771;-39
2022/12/12 15:19:24;;;;;;;;;;;;;;;;;;5114904;28;1258;-39
2022/12/12 15:21:52;;;;;;;;;;;;;;;;;;5075247;28;2008;-39
2022/12/12 15:24:23;;;;;;;;;;;;;;;;;;5092217;28;1783;-39
2022/12/12 15:26:52;;;;;;;;;;;;;;;;;;5092450;28;1726;-39
2022/12/12 15:29:24;;;;;;;;;;;;;;;;;;5073966;28;1902;-40
2022/12/12 15:31:54;;;;;;;;;;;;;;;;;;5092591;28;1731;-40
2022/12/12 15:34:29;;;;;;;;;;;;;;;;;;5093157;28;1709;-39
2022/12/12 15:37:07;;;;;;;;;;;;;;;;;;5093706;28;1711;-40
2022/12/12 15:39:35;;;;;;;;;;;;;;;;;;5093759;28;1945;-39
2022/12/12 15:42:02;;;;;;;;;;;;;;;;;;5093780;28;1768;-39
2022/12/12 15:44:30;;;;;;;;;;;;;;;;;;5094238;28;1609;-40
2022/12/12 15:46:57;;;;;;;;;;;;;;;;;;5093526;28;2003;-39
2022/12/12 15:49:34;;;;;;;;;;;;;;;;;;5093117;28;2105;-40
2022/12/12 15:52:21;;;;;;;;;;;;;;;;;;5093585;28;1921;-40
2022/12/12 15:54:50;;;;;;;;;;;;;;;;;;5093384;28;1574;-39
2022/12/12 15:57:19;;;;;;;;;;;;;;;;;;5093279;28;1607;-39
2022/12/12 15:59:50;;;;;;;;;;;;;;;;;;5093351;28;1861;-39
2022/12/12 16:02:28;;;;;;;;;;;;;;;;;;5093467;28;1867;-39
2022/12/12 16:05:03;;;;;;;;;;;;;;;;;;5093418;28;1778;-40
2022/12/12 16:07:35;;;;;;;;;;;;;;;;;;5092720;28;1672;-39
2022/12/12 16:10:17;;;;;;;;;;;;;;;;;;5093349;28;1907;-39
2022/12/12 16:13:00;;;;;;;;;;;;;;;;;;5093272;28;1745;-39
2022/12/12 16:15:29;;;;;;;;;;;;;;;;;;5074978;28;1738;-40
2022/12/12 16:18:06;;;;;;;;;;;;;;;;;;5092976;28;1622;-40
2022/12/12 16:20:33;;;;;;;;;;;;;;;;;;5102084;28;1453;-39
2022/12/12 16:23:08;;;;;;;;;;;;;;;;;;5113200;28;1735;-40
2022/12/12 16:25:35;;;;;;;;;;;;;;;;;;5113539;28;2293;-40
2022/12/12 16:28:11;;;;;;;;;;;;;;;;;;5113142;28;1987;-39
2022/12/12 16:30:39;;;;;;;;;;;;;;;;;;5113059;28;1544;-40
2022/12/12 16:33:10;;;;;;;;;;;;;;;;;;5113463;28;2141;-40
2022/12/12 16:35:38;;;;;;;;;;;;;;;;;;5113224;28;1929;-39
2022/12/12 16:38:17;;;;;;;;;;;;;;;;;;5113333;28;1601;-40
2022/12/12 16:40:46;;;;;;;;;;;;;;;;;;5112865;28;1643;-39
2022/12/12 16:43:15;;;;;;;;;;;;;;;;;;5113215;28;2025;-40
2022/12/12 16:45:42;;;;;;;;;;;;;;;;;;5112889;28;1670;-39
2022/12/12 16:48:20;;;;;;;;;;;;;;;;;;5113029;28;1981;-41
2022/12/12 16:50:48;;;;;;;;;;;;;;;;;;5112661;28;1873;-39
2022/12/12 16:53:15;;;;;;;;;;;;;;;;;;5112982;28;1611;-40
2022/12/12 16:55:43;;;;;;;;;;;;;;;;;;5094590;28;1835;-39
2022/12/12 16:58:11;;;;;;;;;;;;;;;;;;5112698;28;1331;-40
2022/12/12 17:00:38;;;;;;;;;;;;;;;;;;5112824;28;2021;-40
2022/12/12 17:03:06;;;;;;;;;;;;;;;;;;5112619;28;2041;-40
2022/12/12 17:05:34;;;;;;;;;;;;;;;;;;5112587;28;1952;-40
2022/12/12 17:08:01;;;;;;;;;;;;;;;;;;5112113;28;1898;-40
2022/12/12 17:10:30;;;;;;;;;;;;;;;;;;5112746;28;1689;-40
2022/12/12 17:12:57;;;;;;;;;;;;;;;;;;5112799;28;2163;-40
2022/12/12 17:15:26;;;;;;;;;;;;;;;;;;5112546;28;1996;-39
2022/12/12 17:17:54;;;;;;;;;;;;;;;;;;5111882;28;1865;-40
2022/12/12 17:20:21;;;;;;;;;;;;;;;;;;5104735;28;2011;-40
2022/12/12 17:22:50;;;;;;;;;;;;;;;;;;5091832;28;1760;-40
2022/12/12 17:25:17;;;;;;;;;;;;;;;;;;5091876;28;1652;-42
2022/12/12 17:27:44;;;;;;;;;;;;;;;;;;5091893;28;1720;-40
2022/12/12 17:30:12;;;;;;;;;;;;;;;;;;5091543;28;1967;-38
2022/12/12 17:32:40;;;;;;;;;;;;;;;;;;5091705;28;1442;-40
2022/12/12 17:35:07;;;;;;;;;;;;;;;;;;5073267;28;1918;-40
2022/12/12 17:37:34;;;;;;;;;;;;;;;;;;5091702;28;1917;-39
2022/12/12 17:40:03;;;;;;;;;;;;;;;;;;5091582;28;1835;-40
2022/12/12 17:42:30;;;;;;;;;;;;;;;;;;5073835;28;1959;-40